Aviation Digital Data Service (ADDS)

Output produced by METARs form (0922 UTC 26 January 2020)
found at http://www.aviationweather.gov/metar/data/
 
METAR text: RJTO 260700Z 03014KT 9999 -RA FEW009 SCT015 BKN020 07/05 Q1023
Conditions at: RJTO (OSHIMA AIRPORT , JP) observed 0700 UTC 26 January 2020
Temperature: 7.0°C (45°F)
Dewpoint: 5.0°C (41°F) [RH = 87%]
Pressure (altimeter): 30.21 inches Hg (1023.0 mb)
Winds: from the NNE (30 degrees) at 16 MPH (14 knots; 7.2 m/s)
Visibility: 6 or more miles (10+ km)
Ceiling: 2000 feet AGL
Clouds: few clouds at 900 feet AGL
scattered clouds at 1500 feet AGL
broken clouds at 2000 feet AGL
Weather: -RA  (light rain)

METAR text: RJTO 260600Z 04012KT 9999 -RA FEW009 BKN015 BKN020 07/05 Q1024
Conditions at: RJTO (OSHIMA AIRPORT , JP) observed 0600 UTC 26 January 2020
Temperature: 7.0°C (45°F)
Dewpoint: 5.0°C (41°F) [RH = 87%]
Pressure (altimeter): 30.24 inches Hg (1024.0 mb)
Winds: from the NE (40 degrees) at 14 MPH (12 knots; 6.2 m/s)
Visibility: 6 or more miles (10+ km)
Ceiling: 1500 feet AGL
Clouds: few clouds at 900 feet AGL
broken clouds at 1500 feet AGL
broken clouds at 2000 feet AGL
Weather: -RA  (light rain)

METAR text: RJTO 260500Z 03015KT 9999 -RA FEW009 SCT013 BKN020 06/04 Q1024
Conditions at: RJTO (OSHIMA AIRPORT , JP) observed 0500 UTC 26 January 2020
Temperature: 6.0°C (43°F)
Dewpoint: 4.0°C (39°F) [RH = 87%]
Pressure (altimeter): 30.24 inches Hg (1024.0 mb)
Winds: from the NNE (30 degrees) at 17 MPH (15 knots; 7.7 m/s)
Visibility: 6 or more miles (10+ km)
Ceiling: 2000 feet AGL
Clouds: few clouds at 900 feet AGL
scattered clouds at 1300 feet AGL
broken clouds at 2000 feet AGL
Weather: -RA  (light rain)

METAR text: RJTO 260400Z 03015KT 9999 -RA FEW009 BKN012 BKN020 06/04 Q1024
Conditions at: RJTO (OSHIMA AIRPORT , JP) observed 0400 UTC 26 January 2020
Temperature: 6.0°C (43°F)
Dewpoint: 4.0°C (39°F) [RH = 87%]
Pressure (altimeter): 30.24 inches Hg (1024.0 mb)
Winds: from the NNE (30 degrees) at 17 MPH (15 knots; 7.7 m/s)
Visibility: 6 or more miles (10+ km)
Ceiling: 1200 feet AGL
Clouds: few clouds at 900 feet AGL
broken clouds at 1200 feet AGL
broken clouds at 2000 feet AGL
Weather: -RA  (light rain)

METAR text: RJTO 260300Z 03017KT 9999 -RA FEW008 BKN010 BKN015 06/04 Q1024
Conditions at: RJTO (OSHIMA AIRPORT , JP) observed 0300 UTC 26 January 2020
Temperature: 6.0°C (43°F)
Dewpoint: 4.0°C (39°F) [RH = 87%]
Pressure (altimeter): 30.24 inches Hg (1024.0 mb)
Winds: from the NNE (30 degrees) at 20 MPH (17 knots; 8.7 m/s)
Visibility: 6 or more miles (10+ km)
Ceiling: 1000 feet AGL
Clouds: few clouds at 800 feet AGL
broken clouds at 1000 feet AGL
broken clouds at 1500 feet AGL
Weather: -RA  (light rain)

METAR text: RJTO 260200Z 03018KT 8000 -RA FEW008 BKN012 BKN015 05/04 Q1025
Conditions at: RJTO (OSHIMA AIRPORT , JP) observed 0200 UTC 26 January 2020
Temperature: 5.0°C (41°F)
Dewpoint: 4.0°C (39°F) [RH = 93%]
Pressure (altimeter): 30.27 inches Hg (1025.0 mb)
Winds: from the NNE (30 degrees) at 21 MPH (18 knots; 9.3 m/s)
Visibility: 5 miles ( 8 km)
Ceiling: 1200 feet AGL
Clouds: few clouds at 800 feet AGL
broken clouds at 1200 feet AGL
broken clouds at 1500 feet AGL
Weather: -RA  (light rain)

METAR text: RJTO 260100Z 04016KT 8000 -RA FEW008 BKN011 BKN015 06/04 Q1026
Conditions at: RJTO (OSHIMA AIRPORT , JP) observed 0100 UTC 26 January 2020
Temperature: 6.0°C (43°F)
Dewpoint: 4.0°C (39°F) [RH = 87%]
Pressure (altimeter): 30.30 inches Hg (1026.0 mb)
Winds: from the NE (40 degrees) at 18 MPH (16 knots; 8.2 m/s)
Visibility: 5 miles ( 8 km)
Ceiling: 1100 feet AGL
Clouds: few clouds at 800 feet AGL
broken clouds at 1100 feet AGL
broken clouds at 1500 feet AGL
Weather: -RA  (light rain)

METAR text: RJTO 260000Z 03016KT 9999 -RA FEW008 BKN012 BKN015 06/04 Q1025
Conditions at: RJTO (OSHIMA AIRPORT , JP) observed 0000 UTC 26 January 2020
Temperature: 6.0°C (43°F)
Dewpoint: 4.0°C (39°F) [RH = 87%]
Pressure (altimeter): 30.27 inches Hg (1025.0 mb)
Winds: from the NNE (30 degrees) at 18 MPH (16 knots; 8.2 m/s)
Visibility: 6 or more miles (10+ km)
Ceiling: 1200 feet AGL
Clouds: few clouds at 800 feet AGL
broken clouds at 1200 feet AGL
broken clouds at 1500 feet AGL
Weather: -RA  (light rain)

METAR text: RJTO 252300Z 04015KT 9999 -RA FEW007 BKN012 BKN015 06/04 Q1025
Conditions at: RJTO (OSHIMA AIRPORT , JP) observed 2300 UTC 25 January 2020
Temperature: 6.0°C (43°F)
Dewpoint: 4.0°C (39°F) [RH = 87%]
Pressure (altimeter): 30.27 inches Hg (1025.0 mb)
Winds: from the NE (40 degrees) at 17 MPH (15 knots; 7.7 m/s)
Visibility: 6 or more miles (10+ km)
Ceiling: 1200 feet AGL
Clouds: few clouds at 700 feet AGL
broken clouds at 1200 feet AGL
broken clouds at 1500 feet AGL
Weather: -RA  (light rain)

METAR text: RJTO 250700Z 04010KT 9999 FEW030 BKN040 BKN050 10/03 Q1026
Conditions at: RJTO (OSHIMA AIRPORT , JP) observed 0700 UTC 25 January 2020
Temperature: 10.0°C (50°F)
Dewpoint: 3.0°C (37°F) [RH = 62%]
Pressure (altimeter): 30.30 inches Hg (1026.0 mb)
Winds: from the NE (40 degrees) at 12 MPH (10 knots; 5.1 m/s)
Visibility: 6 or more miles (10+ km)
Ceiling: 4000 feet AGL
Clouds: few clouds at 3000 feet AGL
broken clouds at 4000 feet AGL
broken clouds at 5000 feet AGL
Weather: no significant weather observed at this time

METAR text: RJTO 250600Z 04010KT 9999 FEW030 SCT040 BKN050 10/03 Q1026
Conditions at: RJTO (OSHIMA AIRPORT , JP) observed 0600 UTC 25 January 2020
Temperature: 10.0°C (50°F)
Dewpoint: 3.0°C (37°F) [RH = 62%]
Pressure (altimeter): 30.30 inches Hg (1026.0 mb)
Winds: from the NE (40 degrees) at 12 MPH (10 knots; 5.1 m/s)
Visibility: 6 or more miles (10+ km)
Ceiling: 5000 feet AGL
Clouds: few clouds at 3000 feet AGL
scattered clouds at 4000 feet AGL
broken clouds at 5000 feet AGL
Weather: no significant weather observed at this time

METAR text: RJTO 250500Z 04011KT 9999 FEW030 BKN040 BKN050 10/03 Q1026
Conditions at: RJTO (OSHIMA AIRPORT , JP) observed 0500 UTC 25 January 2020
Temperature: 10.0°C (50°F)
Dewpoint: 3.0°C (37°F) [RH = 62%]
Pressure (altimeter): 30.30 inches Hg (1026.0 mb)
Winds: from the NE (40 degrees) at 13 MPH (11 knots; 5.7 m/s)
Visibility: 6 or more miles (10+ km)
Ceiling: 4000 feet AGL
Clouds: few clouds at 3000 feet AGL
broken clouds at 4000 feet AGL
broken clouds at 5000 feet AGL
Weather: no significant weather observed at this time

METAR text: RJTO 250400Z 03013KT 9999 FEW030 BKN040 BKN050 10/03 Q1025
Conditions at: RJTO (OSHIMA AIRPORT , JP) observed 0400 UTC 25 January 2020
Temperature: 10.0°C (50°F)
Dewpoint: 3.0°C (37°F) [RH = 62%]
Pressure (altimeter): 30.27 inches Hg (1025.0 mb)
Winds: from the NNE (30 degrees) at 15 MPH (13 knots; 6.7 m/s)
Visibility: 6 or more miles (10+ km)
Ceiling: 4000 feet AGL
Clouds: few clouds at 3000 feet AGL
broken clouds at 4000 feet AGL
broken clouds at 5000 feet AGL
Weather: no significant weather observed at this time

METAR text: RJTO 250300Z 04014KT 9999 FEW030 SCT040 BKN060 10/03 Q1026
Conditions at: RJTO (OSHIMA AIRPORT , JP) observed 0300 UTC 25 January 2020
Temperature: 10.0°C (50°F)
Dewpoint: 3.0°C (37°F) [RH = 62%]
Pressure (altimeter): 30.30 inches Hg (1026.0 mb)
Winds: from the NE (40 degrees) at 16 MPH (14 knots; 7.2 m/s)
Visibility: 6 or more miles (10+ km)
Ceiling: 6000 feet AGL
Clouds: few clouds at 3000 feet AGL
scattered clouds at 4000 feet AGL
broken clouds at 6000 feet AGL
Weather: no significant weather observed at this time

METAR text: RJTO 250200Z 03015KT 9999 FEW030 SCT050 BKN170 11/02 Q1027
Conditions at: RJTO (OSHIMA AIRPORT , JP) observed 0200 UTC 25 January 2020
Temperature: 11.0°C (52°F)
Dewpoint: 2.0°C (36°F) [RH = 54%]
Pressure (altimeter): 30.32 inches Hg (1027.0 mb)
Winds: from the NNE (30 degrees) at 17 MPH (15 knots; 7.7 m/s)
Visibility: 6 or more miles (10+ km)
Ceiling: 17000 feet AGL
Clouds: few clouds at 3000 feet AGL
scattered clouds at 5000 feet AGL
broken clouds at 17000 feet AGL
Weather: no significant weather observed at this time

METAR text: RJTO 250100Z 04015KT 9999 FEW030 SCT050 BKN/// 11/M00 Q1027
Conditions at: RJTO (OSHIMA AIRPORT , JP) observed 0100 UTC 25 January 2020
Temperature: 11.0°C (52°F)
Dewpoint: 0.0°C (32°F) [RH = 47%]
Pressure (altimeter): 30.32 inches Hg (1027.0 mb)
Winds: from the NE (40 degrees) at 17 MPH (15 knots; 7.7 m/s)
Visibility: 6 or more miles (10+ km)
Ceiling: at least 12,000 feet AGL
Clouds: few clouds at 3000 feet AGL
scattered clouds at 5000 feet AGL
Weather: no significant weather observed at this time

METAR text: RJTO 250000Z 04016KT 9999 FEW025 BKN045 09/00 Q1027
Conditions at: RJTO (OSHIMA AIRPORT , JP) observed 0000 UTC 25 January 2020
Temperature: 9.0°C (48°F)
Dewpoint: 0.0°C (32°F) [RH = 53%]
Pressure (altimeter): 30.32 inches Hg (1027.0 mb)
Winds: from the NE (40 degrees) at 18 MPH (16 knots; 8.2 m/s)
Visibility: 6 or more miles (10+ km)
Ceiling: 4500 feet AGL
Clouds: few clouds at 2500 feet AGL
broken clouds at 4500 feet AGL
Weather: no significant weather observed at this time

METAR text: RJTO 242300Z 05015KT 9999 FEW025 SCT190 09/M00 Q1027
Conditions at: RJTO (OSHIMA AIRPORT , JP) observed 2300 UTC 24 January 2020
Temperature: 9.0°C (48°F)
Dewpoint: 0.0°C (32°F) [RH = 53%]
Pressure (altimeter): 30.32 inches Hg (1027.0 mb)
Winds: from the NE (50 degrees) at 17 MPH (15 knots; 7.7 m/s)
Visibility: 6 or more miles (10+ km)
Ceiling: at least 12,000 feet AGL
Clouds: few clouds at 2500 feet AGL
scattered clouds at 19000 feet AGL
Weather: no significant weather observed at this time